createdAt,value
2018-11-06T00:00:15.078Z,98.02
2018-11-06T00:01:20.073Z,98.24
2018-11-06T00:02:24.557Z,98.14
2018-11-06T00:03:52.720Z,98.22
2018-11-06T00:05:04.194Z,98.35
2018-11-06T00:06:08.701Z,98.12
2018-11-06T00:07:14.176Z,98.03
2018-11-06T00:08:18.652Z,97.94
2018-11-06T00:09:23.371Z,98.18
2018-11-06T00:10:28.217Z,98.18
2018-11-06T00:11:33.372Z,98.00
2018-11-06T00:12:38.800Z,98.05
2018-11-06T00:13:43.305Z,98.46
2018-11-06T00:14:47.814Z,98.06
2018-11-06T00:15:52.412Z,98.11
2018-11-06T00:16:58.351Z,98.29
2018-11-06T00:18:03.456Z,98.19
2018-11-06T00:19:07.908Z,97.98
2018-11-06T00:20:13.581Z,98.31
2018-11-06T00:21:18.962Z,98.22
2018-11-06T00:22:23.432Z,98.18
2018-11-06T00:23:28.386Z,98.22
2018-11-06T00:24:32.918Z,98.12
2018-11-06T00:25:37.681Z,98.33
2018-11-06T00:26:42.132Z,98.45
2018-11-06T00:27:47.621Z,98.40
2018-11-06T00:28:52.991Z,98.39
2018-11-06T00:29:57.772Z,98.37
2018-11-06T00:31:02.308Z,98.18
2018-11-06T00:32:06.796Z,98.27
2018-11-06T00:33:11.257Z,98.55
2018-11-06T00:34:15.918Z,98.54
2018-11-06T00:35:20.410Z,98.51
2018-11-06T00:36:25.257Z,98.32
2018-11-06T00:37:29.770Z,98.61
2018-11-06T00:38:34.266Z,98.38
2018-11-06T00:39:39.513Z,98.15
2018-11-06T00:40:44.212Z,98.14
2018-11-06T00:41:48.971Z,98.44
2018-11-06T00:42:53.843Z,98.36
2018-11-06T00:43:58.348Z,98.50
2018-11-06T00:45:02.942Z,98.49
2018-11-06T00:46:07.433Z,98.21
2018-11-06T00:47:12.124Z,98.45
2018-11-06T00:48:16.625Z,98.42
2018-11-06T00:49:21.580Z,98.23
2018-11-06T00:50:26.065Z,98.34
2018-11-06T00:51:30.572Z,98.29
2018-11-06T00:52:35.050Z,98.35
2018-11-06T00:53:40.388Z,98.65
2018-11-06T00:54:44.908Z,98.36
2018-11-06T00:55:50.054Z,98.31
2018-11-06T00:56:54.571Z,98.64
2018-11-06T00:57:59.046Z,98.40
2018-11-06T00:59:03.557Z,98.63
2018-11-06T01:00:09.461Z,98.25
2018-11-06T01:01:13.978Z,98.30
2018-11-06T01:02:18.791Z,98.38
2018-11-06T01:03:27.400Z,98.23
2018-11-06T01:04:31.857Z,98.50
2018-11-06T01:05:36.333Z,98.42
2018-11-06T01:06:40.840Z,98.45
2018-11-06T01:07:47.525Z,98.61
2018-11-06T01:08:52.409Z,98.39
2018-11-06T01:09:57.015Z,98.59
2018-11-06T01:11:01.563Z,98.63
2018-11-06T01:12:06.069Z,98.55
2018-11-06T01:13:10.685Z,98.49
2018-11-06T01:14:15.424Z,98.64
2018-11-06T01:15:20.296Z,98.69
2018-11-06T01:16:25.164Z,98.32
2018-11-06T01:17:30.147Z,98.70
2018-11-06T01:18:35.228Z,98.34
2018-11-06T01:19:41.645Z,98.67
2018-11-06T01:20:46.708Z,98.77
2018-11-06T01:21:51.229Z,98.77
2018-11-06T01:22:56.673Z,98.81
2018-11-06T01:24:01.137Z,98.54
2018-11-06T01:25:05.795Z,98.68
2018-11-06T01:26:10.297Z,98.74
2018-11-06T01:27:15.228Z,98.65
2018-11-06T01:28:19.705Z,98.44
2018-11-06T01:29:24.210Z,98.44
2018-11-06T01:30:28.718Z,98.67
2018-11-06T01:31:33.329Z,98.29
2018-11-06T01:32:37.956Z,98.52
2018-11-06T01:33:43.055Z,98.38
2018-11-06T01:34:47.596Z,98.41
2018-11-06T01:35:52.127Z,98.38
2018-11-06T01:36:56.637Z,98.51
2018-11-06T01:38:01.124Z,98.53
2018-11-06T01:39:07.041Z,98.62
2018-11-06T01:40:13.390Z,98.65
2018-11-06T01:41:18.414Z,98.55
2018-11-06T01:42:23.237Z,98.59
2018-11-06T01:43:28.362Z,98.70
2018-11-06T01:44:32.878Z,98.61
2018-11-06T01:45:37.370Z,98.66
2018-11-06T01:46:42.276Z,98.52
2018-11-06T01:47:46.947Z,98.49
2018-11-06T01:48:51.559Z,98.55
2018-11-06T01:49:56.097Z,98.31
2018-11-06T01:51:00.598Z,98.26
2018-11-06T01:52:05.138Z,98.43
2018-11-06T01:53:11.040Z,98.50
2018-11-06T01:54:15.646Z,98.66
2018-11-06T01:55:20.187Z,98.48
2018-11-06T01:56:24.838Z,98.62
2018-11-06T01:57:29.521Z,98.60
2018-11-06T01:58:34.210Z,98.74
2018-11-06T01:59:39.184Z,98.91
2018-11-06T02:00:43.677Z,99.08
2018-11-06T02:01:48.125Z,98.77
2018-11-06T02:02:52.629Z,98.87
2018-11-06T02:03:57.232Z,98.97
2018-11-06T02:05:01.767Z,98.59
2018-11-06T02:06:06.329Z,98.73
2018-11-06T02:07:12.553Z,98.66
2018-11-06T02:08:20.093Z,98.62
2018-11-06T02:09:24.543Z,98.60
2018-11-06T02:10:29.029Z,98.80
2018-11-06T02:11:33.541Z,98.82
2018-11-06T02:12:38.321Z,98.64
2018-11-06T02:13:42.820Z,98.83
2018-11-06T02:14:47.290Z,98.57
2018-11-06T02:15:51.788Z,98.74
2018-11-06T02:16:57.195Z,98.79
2018-11-06T02:18:01.712Z,98.69
2018-11-06T02:19:06.568Z,98.67
2018-11-06T02:20:11.901Z,98.72
2018-11-06T02:21:16.408Z,98.62
2018-11-06T02:22:21.371Z,98.72
2018-11-06T02:23:31.236Z,98.72
2018-11-06T02:24:35.977Z,98.86
2018-11-06T02:25:41.001Z,99.03
2018-11-06T02:26:46.402Z,98.83
2018-11-06T02:27:51.705Z,98.87
2018-11-06T02:28:56.660Z,98.90
2018-11-06T02:30:01.199Z,98.71
2018-11-06T02:31:05.825Z,98.41
2018-11-06T02:32:13.401Z,98.58
2018-11-06T02:33:17.996Z,98.45
2018-11-06T02:34:22.989Z,98.61
2018-11-06T02:37:39.044Z,98.69
2018-11-06T02:38:43.879Z,98.91
2018-11-06T02:39:49.301Z,98.41
2018-11-06T02:40:55.420Z,98.78
2018-11-06T02:41:59.892Z,98.75
2018-11-06T02:43:04.702Z,98.75
2018-11-06T02:44:09.470Z,99.09
2018-11-06T02:45:14.831Z,98.87
2018-11-06T02:46:19.345Z,98.77
2018-11-06T02:47:23.816Z,98.79
2018-11-06T02:48:28.285Z,98.87
2018-11-06T02:49:32.775Z,99.01
2018-11-06T02:50:37.580Z,99.17
2018-11-06T02:51:42.115Z,98.49
2018-11-06T02:52:46.989Z,98.71
2018-11-06T02:53:51.437Z,98.87
2018-11-06T02:54:55.902Z,98.80
2018-11-06T02:56:02.441Z,99.05
2018-11-06T02:57:07.130Z,98.74
2018-11-06T02:58:11.639Z,98.90
2018-11-06T02:59:16.126Z,98.82
2018-11-06T03:01:59.697Z,99.23
2018-11-06T03:03:04.452Z,98.95
2018-11-06T03:04:08.937Z,99.03
2018-11-06T03:05:14.213Z,99.13
2018-11-06T03:06:18.700Z,98.97
2018-11-06T03:07:23.283Z,98.92
2018-11-06T03:08:27.853Z,98.75
2018-11-06T03:09:32.720Z,99.16
2018-11-06T03:10:37.216Z,98.87
2018-11-06T03:11:41.685Z,98.90
2018-11-06T03:12:46.327Z,99.02
2018-11-06T03:13:51.196Z,99.08
2018-11-06T03:14:55.805Z,98.89
2018-11-06T03:16:00.565Z,99.36
2018-11-06T03:17:05.058Z,99.17
2018-11-06T03:18:10.092Z,98.99
2018-11-06T03:19:15.735Z,99.15
2018-11-06T03:20:20.437Z,99.12
2018-11-06T03:21:25.235Z,99.09
2018-11-06T03:22:29.713Z,99.37
2018-11-06T03:23:34.192Z,99.19
2018-11-06T03:24:38.690Z,99.27
2018-11-06T03:25:43.197Z,99.52
2018-11-06T03:26:48.544Z,99.50
2018-11-06T03:27:53.417Z,99.28
2018-11-06T03:28:57.941Z,99.29
2018-11-06T03:30:02.629Z,99.30
2018-11-06T03:31:10.811Z,99.33
2018-11-06T03:32:15.276Z,99.44
2018-11-06T03:33:19.757Z,99.31
2018-11-06T03:34:24.521Z,99.19
2018-11-06T03:35:29.019Z,99.43
2018-11-06T03:36:33.509Z,99.23
2018-11-06T03:37:38.042Z,99.25
2018-11-06T03:38:42.534Z,99.33
2018-11-06T03:39:46.993Z,99.35
2018-11-06T03:40:53.046Z,99.48
2018-11-06T03:41:57.545Z,99.48
2018-11-06T03:43:02.100Z,99.62
2018-11-06T03:44:07.601Z,99.78
2018-11-06T03:45:12.914Z,99.57
2018-11-06T03:46:17.489Z,99.44
2018-11-06T03:47:22.255Z,99.53
2018-11-06T03:48:26.737Z,99.40
2018-11-06T03:49:31.274Z,99.40
2018-11-06T03:50:35.754Z,99.39
2018-11-06T03:51:40.227Z,99.37
2018-11-06T03:52:44.777Z,99.44
2018-11-06T03:53:49.574Z,99.48
2018-11-06T03:54:54.064Z,99.43
2018-11-06T03:55:58.545Z,99.53
2018-11-06T03:57:03.102Z,99.53
2018-11-06T03:58:07.600Z,99.68
2018-11-06T03:59:12.118Z,99.75
2018-11-06T04:00:17.243Z,99.67
2018-11-06T04:01:21.808Z,99.48
2018-11-06T04:02:26.341Z,99.44
2018-11-06T04:03:30.808Z,99.45
2018-11-06T04:04:35.560Z,99.48
2018-11-06T04:05:40.085Z,99.51
2018-11-06T04:06:46.269Z,99.44
2018-11-06T04:07:50.984Z,99.34
2018-11-06T04:08:55.487Z,99.42
2018-11-06T04:09:59.975Z,99.17
2018-11-06T04:11:04.446Z,99.25
2018-11-06T04:12:08.985Z,99.29
2018-11-06T04:13:20.416Z,99.31
2018-11-06T04:14:26.804Z,99.19
2018-11-06T04:15:31.441Z,99.21
2018-11-06T04:16:35.934Z,98.95
2018-11-06T04:17:40.681Z,99.00
2018-11-06T04:18:45.209Z,99.05
2018-11-06T04:19:50.099Z,99.02
2018-11-06T04:20:54.846Z,98.85
2018-11-06T04:21:59.383Z,99.08
2018-11-06T04:23:04.268Z,98.94
2018-11-06T04:24:10.089Z,99.00
2018-11-06T04:25:14.604Z,99.12
2018-11-06T04:26:21.299Z,99.13
2018-11-06T04:27:25.768Z,99.15
2018-11-06T04:28:30.252Z,99.25
2018-11-06T04:29:34.766Z,99.09
2018-11-06T04:30:39.237Z,99.27
2018-11-06T04:31:43.751Z,99.30
2018-11-06T04:32:48.592Z,99.41
2018-11-06T04:33:53.163Z,99.18
2018-11-06T04:34:57.855Z,99.12
2018-11-06T04:36:02.310Z,99.19
2018-11-06T04:37:06.925Z,99.21
2018-11-06T04:38:11.502Z,99.17
2018-11-06T04:39:16.517Z,99.30
2018-11-06T04:40:21.266Z,99.10
2018-11-06T04:41:26.202Z,98.98
2018-11-06T04:42:30.676Z,99.17
2018-11-06T04:43:35.170Z,99.32
2018-11-06T04:44:39.657Z,99.18
2018-11-06T04:45:45.265Z,99.29
2018-11-06T04:46:50.351Z,99.22
2018-11-06T04:47:55.026Z,99.14
2018-11-06T04:48:59.755Z,99.36
2018-11-06T04:50:04.677Z,98.85
2018-11-06T04:51:09.869Z,99.06
2018-11-06T04:52:14.680Z,98.83
2018-11-06T04:53:19.270Z,98.85
2018-11-06T04:54:24.572Z,99.08
2018-11-06T04:55:29.069Z,99.01
2018-11-06T04:56:33.690Z,98.77
2018-11-06T04:57:38.218Z,99.01
2018-11-06T04:58:42.996Z,98.92
2018-11-06T04:59:47.542Z,99.06
2018-11-06T05:00:52.056Z,98.92
2018-11-06T05:01:56.825Z,99.05
2018-11-06T05:03:01.900Z,99.05
2018-11-06T05:04:06.386Z,99.15
2018-11-06T05:05:11.502Z,99.12
2018-11-06T05:06:16.616Z,99.27
2018-11-06T05:07:21.140Z,99.16
2018-11-06T05:08:25.597Z,99.08
2018-11-06T05:09:30.941Z,99.10
2018-11-06T05:10:35.458Z,99.09
2018-11-06T05:11:40.348Z,99.10
2018-11-06T05:12:45.131Z,99.21
2018-11-06T05:13:49.701Z,99.08
2018-11-06T05:14:54.250Z,99.06
2018-11-06T05:16:00.767Z,99.10
2018-11-06T05:17:05.923Z,99.04
2018-11-06T05:18:12.662Z,99.00
2018-11-06T05:19:17.188Z,98.99
2018-11-06T05:20:22.248Z,99.03
2018-11-06T05:21:27.522Z,98.76
2018-11-06T05:22:32.041Z,98.89
2018-11-06T05:23:36.727Z,98.93
2018-11-06T05:24:41.504Z,98.98
2018-11-06T05:25:46.009Z,98.99
2018-11-06T05:26:50.477Z,99.05
2018-11-06T05:27:54.979Z,99.21
2018-11-06T05:28:59.519Z,99.25
2018-11-06T05:30:05.202Z,99.03
2018-11-06T05:31:09.752Z,99.17
2018-11-06T05:32:14.269Z,99.09
2018-11-06T05:33:18.757Z,99.22
2018-11-06T05:34:24.097Z,99.26
2018-11-06T05:35:28.709Z,99.34
2018-11-06T05:36:33.524Z,99.05
2018-11-06T05:37:38.184Z,99.01
2018-11-06T05:38:42.863Z,98.83
2018-11-06T05:39:53.401Z,98.70
2018-11-06T05:41:03.373Z,98.73
2018-11-06T05:42:08.964Z,98.84
2018-11-06T05:43:13.900Z,98.94
2018-11-06T05:44:18.435Z,98.92
2018-11-06T05:45:23.498Z,99.10
2018-11-06T05:46:27.957Z,99.04
2018-11-06T05:47:32.409Z,98.78
2018-11-06T05:48:37.170Z,99.01
2018-11-06T05:49:41.629Z,98.85
2018-11-06T05:50:46.337Z,98.94
2018-11-06T05:51:51.798Z,98.77
2018-11-06T05:52:56.367Z,99.04
2018-11-06T05:54:01.456Z,98.91
2018-11-06T05:55:06.650Z,98.93
2018-11-06T05:56:11.149Z,99.09
2018-11-06T05:57:16.802Z,99.36
2018-11-06T05:58:22.734Z,99.27
2018-11-06T05:59:27.376Z,99.53
2018-11-06T06:00:32.223Z,99.50
2018-11-06T06:01:37.123Z,99.41
2018-11-06T06:02:41.630Z,99.49
2018-11-06T06:03:46.217Z,99.45
2018-11-06T06:04:50.763Z,99.42
2018-11-06T06:05:55.275Z,99.18
2018-11-06T06:07:01.199Z,99.27
2018-11-06T06:08:06.608Z,99.31
2018-11-06T06:09:11.183Z,99.27
2018-11-06T06:10:19.081Z,99.26
2018-11-06T06:11:23.557Z,99.25
2018-11-06T06:12:28.031Z,99.33
2018-11-06T06:13:32.612Z,99.33
2018-11-06T06:14:37.612Z,99.21
2018-11-06T06:15:43.277Z,99.44
2018-11-06T06:16:47.834Z,99.43
2018-11-06T06:17:52.633Z,99.36
2018-11-06T06:19:00.752Z,99.53
2018-11-06T06:20:06.731Z,99.38
2018-11-06T06:21:12.950Z,99.35
2018-11-06T06:22:18.119Z,99.60
2018-11-06T06:23:22.609Z,99.62
2018-11-06T06:24:28.242Z,99.32
2018-11-06T06:25:33.762Z,99.54
2018-11-06T06:26:38.732Z,99.57
2018-11-06T06:27:43.520Z,99.53
2018-11-06T06:28:48.040Z,99.46
2018-11-06T06:29:52.637Z,99.65
2018-11-06T06:30:57.696Z,99.66
2018-11-06T06:32:02.203Z,99.76
2018-11-06T06:46:07.859Z,100.00
2018-11-06T06:47:12.388Z,100.00
2018-11-06T06:48:16.847Z,100.00
2018-11-06T06:49:21.734Z,100.00
2018-11-06T06:50:26.241Z,100.00
2018-11-06T06:51:31.214Z,100.00
2018-11-06T06:52:35.811Z,100.00
2018-11-06T06:53:43.390Z,100.00
2018-11-06T06:54:48.003Z,100.00
2018-11-06T06:55:53.394Z,100.00
2018-11-06T06:57:01.637Z,100.00
2018-11-06T06:58:06.564Z,100.00
2018-11-06T06:59:11.406Z,100.00
2018-11-06T07:00:17.504Z,100.00
2018-11-06T07:01:22.611Z,99.93
2018-11-06T07:02:27.625Z,99.86
2018-11-06T07:03:33.470Z,100.00
2018-11-06T07:04:40.960Z,99.64
2018-11-06T07:05:46.745Z,99.71
2018-11-06T07:06:52.455Z,99.83
2018-11-06T07:07:57.908Z,99.86
2018-11-06T07:09:05.737Z,99.60
2018-11-06T07:10:13.697Z,99.45
2018-11-06T07:11:18.831Z,99.34
2018-11-06T07:12:24.920Z,99.29
2018-11-06T07:13:32.330Z,99.21
2018-11-06T07:14:36.822Z,99.25
2018-11-06T07:15:41.766Z,99.07
2018-11-06T07:16:46.421Z,99.15
2018-11-06T07:17:53.181Z,99.46
2018-11-06T07:18:57.745Z,99.27
2018-11-06T07:20:04.647Z,99.42
2018-11-06T07:21:09.137Z,99.04
2018-11-06T07:22:14.499Z,98.87
2018-11-06T07:23:19.143Z,98.77
2018-11-06T07:24:24.438Z,98.77
2018-11-06T07:25:29.752Z,98.66
2018-11-06T07:26:34.680Z,98.78
2018-11-06T07:27:39.862Z,98.93
2018-11-06T07:28:45.011Z,98.94
2018-11-06T07:29:57.481Z,98.95
2018-11-06T07:31:03.429Z,99.11
2018-11-06T07:32:08.355Z,98.93
2018-11-06T07:33:13.128Z,98.71
2018-11-06T07:34:17.940Z,98.76
2018-11-06T07:35:25.934Z,98.85
2018-11-06T07:36:31.208Z,98.91
2018-11-06T07:37:38.215Z,98.39
2018-11-06T07:38:43.110Z,98.69
2018-11-06T07:39:48.703Z,98.49
2018-11-06T07:40:53.855Z,98.57
2018-11-06T07:41:58.728Z,98.45
2018-11-06T07:43:03.746Z,98.30
2018-11-06T07:44:09.169Z,98.15
2018-11-06T07:45:17.902Z,98.28
2018-11-06T07:46:26.004Z,98.06
2018-11-06T07:47:30.825Z,98.53
2018-11-06T07:48:35.421Z,98.00
2018-11-06T07:49:40.053Z,97.87
2018-11-06T07:50:44.798Z,97.98
2018-11-06T07:51:49.310Z,98.14
2018-11-06T07:52:53.941Z,97.82
2018-11-06T07:53:58.911Z,97.80
2018-11-06T07:55:05.919Z,97.76
2018-11-06T07:56:10.718Z,97.70
2018-11-06T07:57:16.127Z,97.84
2018-11-06T07:58:21.201Z,97.84
2018-11-06T07:59:25.832Z,97.69
2018-11-06T08:00:30.316Z,97.77
2018-11-06T08:01:36.234Z,97.21
2018-11-06T08:02:41.968Z,96.87
2018-11-06T08:03:47.025Z,97.04
2018-11-06T08:04:52.079Z,96.71
2018-11-06T08:05:58.769Z,96.89
2018-11-06T08:07:05.420Z,96.76
2018-11-06T08:08:11.925Z,96.54
2018-11-06T08:09:16.566Z,96.94
2018-11-06T08:10:21.749Z,96.47
2018-11-06T08:11:26.217Z,96.32
2018-11-06T08:12:30.725Z,95.88
2018-11-06T08:13:35.290Z,95.34
2018-11-06T08:14:39.894Z,95.29
2018-11-06T08:15:44.405Z,94.80
2018-11-06T08:16:48.899Z,94.24
2018-11-06T08:17:53.464Z,93.51
2018-11-06T08:18:58.734Z,92.10
2018-11-06T08:20:03.237Z,90.63
2018-11-06T08:21:08.524Z,90.08
2018-11-06T08:22:18.030Z,88.70
2018-11-06T08:23:24.895Z,86.55
2018-11-06T08:24:35.492Z,84.76
2018-11-06T08:25:41.700Z,84.22
2018-11-06T08:26:49.027Z,81.46
2018-11-06T08:27:54.411Z,79.42
2018-11-06T08:28:59.758Z,78.23
2018-11-06T08:30:04.730Z,77.72
2018-11-06T08:31:10.054Z,73.35
2018-11-06T08:32:19.096Z,73.26
2018-11-06T08:33:34.772Z,71.63
2018-11-06T08:43:58.981Z,67.34
2018-11-06T08:45:23.236Z,65.48
2018-11-06T08:46:42.459Z,63.73
2018-11-06T08:47:48.930Z,63.38
2018-11-06T08:48:54.891Z,60.16
2018-11-06T08:49:59.736Z,58.39
2018-11-06T08:51:05.408Z,58.62
2018-11-06T08:52:12.291Z,60.07
2018-11-06T08:53:21.047Z,59.45
2018-11-06T08:54:42.378Z,58.99
2018-11-06T08:56:08.467Z,60.00
2018-11-06T08:57:32.753Z,59.79
2018-11-06T08:58:56.255Z,59.69
2018-11-06T09:00:00.775Z,60.33
2018-11-06T09:01:05.369Z,60.68
2018-11-06T09:02:10.221Z,61.65
2018-11-06T09:03:15.763Z,62.33
2018-11-06T09:04:21.673Z,63.70
2018-11-06T09:05:27.005Z,64.26
2018-11-06T09:06:33.027Z,63.94
2018-11-06T09:07:39.656Z,63.01
2018-11-06T09:08:46.131Z,62.77
2018-11-06T09:09:50.632Z,61.97
2018-11-06T09:10:56.625Z,61.75
2018-11-06T09:12:01.196Z,61.69
2018-11-06T09:13:08.348Z,62.05
2018-11-06T09:14:13.799Z,63.12
2018-11-06T09:15:18.736Z,64.03
2018-11-06T09:16:23.378Z,64.93
2018-11-06T09:17:30.301Z,65.43
2018-11-06T09:18:35.118Z,66.35
2018-11-06T09:19:39.784Z,66.81
2018-11-06T09:20:44.438Z,67.69
2018-11-06T09:21:49.318Z,68.12
2018-11-06T09:22:53.873Z,68.53
2018-11-06T09:23:58.773Z,69.07
2018-11-06T09:25:05.773Z,69.53
2018-11-06T09:26:10.486Z,69.95
2018-11-06T09:27:15.083Z,70.88
2018-11-06T09:28:20.418Z,71.53
2018-11-06T09:29:25.230Z,72.12
2018-11-06T09:30:31.238Z,72.66
2018-11-06T09:31:37.171Z,73.08
2018-11-06T09:32:42.963Z,73.25
2018-11-06T09:33:48.709Z,73.64
2018-11-06T09:34:54.682Z,73.67
2018-11-06T09:36:00.048Z,73.88
2018-11-06T09:37:05.541Z,73.38
2018-11-06T09:38:10.089Z,74.08
2018-11-06T09:39:15.715Z,74.95
2018-11-06T09:40:21.534Z,75.54
2018-11-06T09:41:26.470Z,75.73
2018-11-06T09:42:31.606Z,75.74
2018-11-06T09:43:36.499Z,76.15
2018-11-06T09:44:41.251Z,76.42
2018-11-06T09:45:46.393Z,76.31
2018-11-06T09:46:52.315Z,76.20
2018-11-06T09:47:57.663Z,76.05
2018-11-06T09:49:05.128Z,76.31
2018-11-06T09:50:11.508Z,76.97
2018-11-06T09:51:16.231Z,77.20
2018-11-06T09:52:26.787Z,77.07
2018-11-06T09:54:49.776Z,77.39
2018-11-06T09:55:58.154Z,77.25
2018-11-06T09:57:04.162Z,77.22
2018-11-06T09:58:10.100Z,77.41
2018-11-06T09:59:14.957Z,77.45
2018-11-06T10:00:21.435Z,77.73
2018-11-06T10:01:30.836Z,77.76
2018-11-06T10:02:44.841Z,77.99
2018-11-06T10:03:50.862Z,78.21
2018-11-06T10:12:03.569Z,78.11
2018-11-06T10:13:09.502Z,79.05
2018-11-06T10:14:14.678Z,79.93
2018-11-06T10:15:27.740Z,79.89
2018-11-06T10:16:38.195Z,80.58
2018-11-06T10:17:45.067Z,80.93
2018-11-06T10:18:51.283Z,80.99
2018-11-06T10:19:59.870Z,80.89
2018-11-06T10:21:06.440Z,80.68
2018-11-06T10:22:11.041Z,80.97
2018-11-06T10:23:16.834Z,81.03
2018-11-06T10:24:22.308Z,81.19
2018-11-06T10:25:28.505Z,80.97
2018-11-06T10:26:33.180Z,81.63
2018-11-06T10:27:38.737Z,81.49
2018-11-06T10:28:44.957Z,81.55
2018-11-06T10:29:50.539Z,81.37
2018-11-06T10:30:57.084Z,80.94
2018-11-06T10:32:01.757Z,81.48
2018-11-06T10:33:07.385Z,81.12
2018-11-06T10:34:14.098Z,81.19
2018-11-06T10:35:21.235Z,81.47
2018-11-06T10:36:29.577Z,81.99
2018-11-06T10:37:37.212Z,81.81
2018-11-06T10:38:42.614Z,81.91
2018-11-06T10:39:48.421Z,81.61
2018-11-06T10:40:58.718Z,81.17
2018-11-06T10:42:04.374Z,81.30
2018-11-06T10:43:09.221Z,81.04
2018-11-06T10:44:14.110Z,81.14
2018-11-06T10:45:22.081Z,80.57
2018-11-06T10:46:30.546Z,80.01
2018-11-06T10:47:37.984Z,80.33
2018-11-06T10:48:42.583Z,80.28
2018-11-06T10:49:48.419Z,79.81
2018-11-06T10:50:53.837Z,79.87
2018-11-06T10:51:59.802Z,79.55
2018-11-06T10:53:05.461Z,79.62
2018-11-06T10:54:11.667Z,79.06
2018-11-06T10:55:17.572Z,78.72
2018-11-06T10:56:24.198Z,78.37
2018-11-06T10:57:31.412Z,78.50
2018-11-06T10:58:43.496Z,78.18
2018-11-06T10:59:48.723Z,77.83
2018-11-06T11:01:02.549Z,77.84
2018-11-06T11:02:12.224Z,77.55
2018-11-06T11:03:21.854Z,77.54
2018-11-06T11:04:27.625Z,77.39
2018-11-06T11:05:33.360Z,77.29
2018-11-06T11:06:38.631Z,76.91
2018-11-06T11:07:44.861Z,76.75
2018-11-06T11:08:49.581Z,76.40
2018-11-06T11:09:54.105Z,76.25
2018-11-06T11:11:00.703Z,75.67
2018-11-06T11:12:07.081Z,76.17
2018-11-06T11:13:18.338Z,76.55
2018-11-06T11:14:25.793Z,75.94
2018-11-06T11:15:32.381Z,75.57
2018-11-06T11:16:37.283Z,75.48
2018-11-06T11:17:43.013Z,75.55
2018-11-06T11:18:48.377Z,75.41
2018-11-06T11:19:56.335Z,75.22
2018-11-06T11:21:02.319Z,75.58
2018-11-06T11:22:13.682Z,75.49
2018-11-06T11:23:21.577Z,75.35
2018-11-06T11:24:27.416Z,75.11
2018-11-06T11:25:32.461Z,75.20
2018-11-06T11:26:40.637Z,75.09
2018-11-06T11:27:46.639Z,74.83
2018-11-06T11:30:05.712Z,74.50
2018-11-06T11:43:03.629Z,72.98
2018-11-06T11:44:09.437Z,72.99
2018-11-06T11:45:15.260Z,72.80
2018-11-06T11:46:19.964Z,72.84
2018-11-06T11:47:27.888Z,72.29
2018-11-06T11:48:32.949Z,72.21
2018-11-06T11:49:37.810Z,71.88
2018-11-06T11:50:43.261Z,71.64
2018-11-06T11:51:48.390Z,71.00
2018-11-06T11:52:55.357Z,71.02
2018-11-06T11:54:00.646Z,70.20
2018-11-06T11:55:06.544Z,70.03
2018-11-06T11:56:12.867Z,69.86
2018-11-06T11:57:17.996Z,69.82
2018-11-06T11:58:22.977Z,68.26
2018-11-06T11:59:28.375Z,67.62
2018-11-06T12:00:38.119Z,68.00
2018-11-06T12:01:43.698Z,67.80
2018-11-06T12:02:50.696Z,67.75
2018-11-06T12:03:56.248Z,67.70
2018-11-06T12:05:03.659Z,67.43
2018-11-06T12:06:08.217Z,66.94
2018-11-06T12:07:15.984Z,66.28
2018-11-06T12:08:22.086Z,66.51
2018-11-06T12:09:26.575Z,66.51
2018-11-06T12:10:33.283Z,66.57
2018-11-06T12:11:38.952Z,65.83
2018-11-06T12:12:43.780Z,65.02
2018-11-06T12:13:48.373Z,64.82
2018-11-06T12:14:52.883Z,64.92
2018-11-06T12:15:57.352Z,64.64
2018-11-06T12:17:03.425Z,63.96
2018-11-06T12:18:08.147Z,64.12
2018-11-06T12:19:14.075Z,62.75
2018-11-06T12:20:19.620Z,62.24
2018-11-06T12:21:25.479Z,62.68
2018-11-06T12:22:31.263Z,62.04
2018-11-06T12:23:37.850Z,61.06
2018-11-06T12:24:43.988Z,60.72
2018-11-06T12:25:49.953Z,60.32
2018-11-06T12:26:55.632Z,60.98
2018-11-06T12:28:00.209Z,61.31
2018-11-06T12:29:04.839Z,62.13
2018-11-06T12:30:10.503Z,62.19
2018-11-06T12:31:18.506Z,62.58
2018-11-06T12:32:23.701Z,61.57
2018-11-06T12:33:29.185Z,60.37
2018-11-06T12:34:35.825Z,59.68
2018-11-06T12:35:41.509Z,58.98
2018-11-06T12:36:46.952Z,59.22
2018-11-06T12:37:53.199Z,59.55
2018-11-06T12:39:00.038Z,59.59
2018-11-06T12:40:05.460Z,58.91
2018-11-06T12:41:14.256Z,58.26
2018-11-06T12:42:19.059Z,58.38
2018-11-06T12:43:24.021Z,58.56
2018-11-06T12:44:29.625Z,58.31
2018-11-06T12:45:34.669Z,58.76
2018-11-06T12:46:39.296Z,58.47
2018-11-06T12:47:44.361Z,58.34
2018-11-06T12:48:48.904Z,58.74
2018-11-06T12:49:54.277Z,58.24
2018-11-06T12:50:59.993Z,58.62
2018-11-06T12:52:06.134Z,58.83
2018-11-06T12:53:14.011Z,59.06
2018-11-06T12:54:19.625Z,59.08
2018-11-06T12:55:24.256Z,59.91
2018-11-06T12:56:29.733Z,60.40
2018-11-06T12:57:37.023Z,60.36
2018-11-06T12:58:41.625Z,60.65
2018-11-06T12:59:48.888Z,60.27
2018-11-06T13:00:54.592Z,59.36
2018-11-06T13:02:01.735Z,59.90
2018-11-06T13:03:07.870Z,59.49
2018-11-06T13:04:14.847Z,59.88
2018-11-06T13:05:23.304Z,59.34
2018-11-06T13:06:28.693Z,58.40
2018-11-06T13:07:34.583Z,59.23
2018-11-06T13:08:40.432Z,58.80
2018-11-06T13:09:46.383Z,57.99
2018-11-06T13:10:52.952Z,56.96
2018-11-06T13:11:58.674Z,57.20
2018-11-06T13:13:03.252Z,57.16
2018-11-06T13:14:09.045Z,57.84
2018-11-06T13:15:16.116Z,57.64
2018-11-06T13:16:20.782Z,57.93
2018-11-06T13:17:28.000Z,57.66
2018-11-06T13:18:34.378Z,57.66
2018-11-06T13:19:39.849Z,57.70
2018-11-06T13:20:45.802Z,57.36
2018-11-06T13:21:52.803Z,57.75
2018-11-06T13:22:58.881Z,57.03
2018-11-06T13:24:05.345Z,57.43
2018-11-06T13:25:09.922Z,57.91
2018-11-06T13:26:16.052Z,57.86
2018-11-06T13:27:25.687Z,58.63
2018-11-06T13:28:31.474Z,58.70
2018-11-06T13:30:50.968Z,59.23
2018-11-06T13:31:57.491Z,59.17
2018-11-06T13:33:03.113Z,59.04
2018-11-06T13:34:09.752Z,59.52
2018-11-06T13:35:23.419Z,58.98
2018-11-06T13:36:27.973Z,59.32
2018-11-06T13:37:37.380Z,58.88
2018-11-06T13:38:43.790Z,57.99
2018-11-06T13:39:49.807Z,57.62
2018-11-06T13:40:57.390Z,57.91
2018-11-06T13:42:07.683Z,58.16
2018-11-06T13:43:14.765Z,57.12
2018-11-06T14:08:05.968Z,60.12
2018-11-06T14:09:14.855Z,57.12
2018-11-06T14:10:36.580Z,57.12
2018-11-06T14:11:43.635Z,60.00
2018-11-06T14:14:37.125Z,57.12
2018-11-06T14:15:44.296Z,53.65
2018-11-06T14:17:11.787Z,53.65
2018-11-06T14:18:17.993Z,53.64
2018-11-06T14:19:24.243Z,53.68
2018-11-06T14:20:41.343Z,52.89
2018-11-06T14:21:47.515Z,53.12
2018-11-06T14:22:52.701Z,52.99
2018-11-06T14:24:01.302Z,52.68
2018-11-06T14:26:22.389Z,52.40
2018-11-06T14:27:29.234Z,53.21
2018-11-06T14:28:52.837Z,52.40
2018-11-06T14:30:03.269Z,51.65
2018-11-06T14:35:37.078Z,52.12
2018-11-06T14:36:48.641Z,52.47
2018-11-06T14:37:53.559Z,52.78
2018-11-06T14:39:01.038Z,52.24
2018-11-06T14:43:20.664Z,52.24
2018-11-06T14:44:25.223Z,55.14
2018-11-06T14:45:31.210Z,52.24
2018-11-06T14:48:23.026Z,52.24
2018-11-06T14:49:37.776Z,52.24
2018-11-06T14:50:43.827Z,52.10
2018-11-06T14:51:49.743Z,52.11
2018-11-06T14:52:59.309Z,52.80
2018-11-06T14:54:04.123Z,52.16
2018-11-06T14:55:21.489Z,52.97
2018-11-06T14:56:33.861Z,53.15
2018-11-06T14:57:39.724Z,53.55
2018-11-06T14:58:50.386Z,53.79
2018-11-06T14:59:57.082Z,53.52
2018-11-06T15:01:03.419Z,53.73
2018-11-06T15:02:09.336Z,54.24
2018-11-06T15:03:14.025Z,53.79
2018-11-06T15:04:20.685Z,54.31
2018-11-06T15:05:25.627Z,54.63
2018-11-06T15:06:33.942Z,55.29
2018-11-06T15:07:40.620Z,54.78
2018-11-06T15:08:46.360Z,55.04
2018-11-06T15:10:06.298Z,55.09
2018-11-06T15:11:12.377Z,55.84
2018-11-06T15:12:17.304Z,55.49
2018-11-06T15:13:22.679Z,55.75
2018-11-06T15:14:28.984Z,55.69
2018-11-06T15:15:35.058Z,56.45
2018-11-06T15:16:40.438Z,56.28
2018-11-06T15:17:46.848Z,56.71
2018-11-06T15:18:51.573Z,56.36
2018-11-06T15:20:03.831Z,56.83
2018-11-06T15:21:10.120Z,56.79
2018-11-06T15:22:16.811Z,57.22
2018-11-06T15:23:21.813Z,57.39
2018-11-06T15:24:27.900Z,57.10
2018-11-06T15:25:35.595Z,57.35
2018-11-06T15:26:41.377Z,57.37
2018-11-06T15:27:48.073Z,57.45
2018-11-06T15:28:56.084Z,57.89
2018-11-06T15:30:00.988Z,57.95
2018-11-06T15:31:07.418Z,57.37
2018-11-06T15:32:14.515Z,58.11
2018-11-06T15:33:19.552Z,58.03